sensor_id;sensor_type;location;lat;lon;timestamp;pressure;altitude;pressure_sealevel;temperature;humidity
72061;BME280;59925;52.136;5.420;2024-03-06T00:02:07;101907.16;;;6.06;100.00
72061;BME280;59925;52.136;5.420;2024-03-06T00:04:34;101907.38;;;6.05;100.00
72061;BME280;59925;52.136;5.420;2024-03-06T00:07:01;101910.06;;;6.05;100.00
72061;BME280;59925;52.136;5.420;2024-03-06T00:09:27;101917.19;;;6.04;100.00
72061;BME280;59925;52.136;5.420;2024-03-06T00:11:55;101919.47;;;6.01;100.00
72061;BME280;59925;52.136;5.420;2024-03-06T00:14:22;101928.91;;;5.90;100.00
72061;BME280;59925;52.136;5.420;2024-03-06T00:16:49;101940.78;;;5.87;100.00
72061;BME280;59925;52.136;5.420;2024-03-06T00:19:19;101935.47;;;5.87;100.00
72061;BME280;59925;52.136;5.420;2024-03-06T00:21:46;101938.75;;;5.89;100.00
72061;BME280;59925;52.136;5.420;2024-03-06T00:24:16;101930.53;;;5.91;100.00
72061;BME280;59925;52.136;5.420;2024-03-06T00:26:44;101939.13;;;5.93;100.00
72061;BME280;59925;52.136;5.420;2024-03-06T00:29:11;101935.25;;;5.95;100.00
72061;BME280;59925;52.136;5.420;2024-03-06T00:31:45;101931.53;;;5.96;100.00
72061;BME280;59925;52.136;5.420;2024-03-06T00:34:12;101933.41;;;5.96;100.00
72061;BME280;59925;52.136;5.420;2024-03-06T00:36:40;101939.75;;;5.95;100.00
72061;BME280;59925;52.136;5.420;2024-03-06T00:39:07;101939.97;;;5.93;100.00
72061;BME280;59925;52.136;5.420;2024-03-06T00:41:35;101939.97;;;5.93;100.00
72061;BME280;59925;52.136;5.420;2024-03-06T00:44:02;101946.94;;;5.94;100.00
72061;BME280;59925;52.136;5.420;2024-03-06T00:46:29;101945.28;;;5.93;100.00
72061;BME280;59925;52.136;5.420;2024-03-06T00:48:55;101946.50;;;5.91;100.00
72061;BME280;59925;52.136;5.420;2024-03-06T00:51:23;101944.06;;;5.89;100.00
72061;BME280;59925;52.136;5.420;2024-03-06T00:54:02;101945.72;;;5.90;100.00
72061;BME280;59925;52.136;5.420;2024-03-06T00:56:29;101953.50;;;5.85;100.00
72061;BME280;59925;52.136;5.420;2024-03-06T00:58:57;101954.13;;;5.80;100.00
72061;BME280;59925;52.136;5.420;2024-03-06T01:01:23;101954.34;;;5.79;100.00
72061;BME280;59925;52.136;5.420;2024-03-06T01:03:50;101946.38;;;5.79;100.00
72061;BME280;59925;52.136;5.420;2024-03-06T01:06:16;101951.06;;;5.77;100.00
72061;BME280;59925;52.136;5.420;2024-03-06T01:08:43;101949.84;;;5.73;100.00
72061;BME280;59925;52.136;5.420;2024-03-06T01:11:11;101961.94;;;5.75;100.00
72061;BME280;59925;52.136;5.420;2024-03-06T01:13:41;101960.09;;;5.76;100.00
72061;BME280;59925;52.136;5.420;2024-03-06T01:16:07;101963.34;;;5.78;100.00
72061;BME280;59925;52.136;5.420;2024-03-06T01:18:34;101962.09;;;5.80;100.00
72061;BME280;59925;52.136;5.420;2024-03-06T01:21:00;101971.72;;;5.81;100.00
72061;BME280;59925;52.136;5.420;2024-03-06T01:23:27;101971.13;;;5.79;100.00
72061;BME280;59925;52.136;5.420;2024-03-06T01:25:53;101978.06;;;5.80;100.00
72061;BME280;59925;52.136;5.420;2024-03-06T01:28:20;101973.59;;;5.81;100.00
72061;BME280;59925;52.136;5.420;2024-03-06T01:30:47;101975.22;;;5.82;100.00
72061;BME280;59925;52.136;5.420;2024-03-06T01:33:13;101977.88;;;5.82;100.00
72061;BME280;59925;52.136;5.420;2024-03-06T01:35:40;101983.00;;;5.83;100.00
72061;BME280;59925;52.136;5.420;2024-03-06T01:38:06;101986.44;;;5.84;100.00
72061;BME280;59925;52.136;5.420;2024-03-06T01:40:35;101988.91;;;5.86;100.00
72061;BME280;59925;52.136;5.420;2024-03-06T01:43:02;101993.84;;;5.89;100.00
72061;BME280;59925;52.136;5.420;2024-03-06T01:45:28;101984.22;;;5.88;100.00
72061;BME280;59925;52.136;5.420;2024-03-06T01:47:55;101983.78;;;5.91;100.00
72061;BME280;59925;52.136;5.420;2024-03-06T01:50:22;101979.28;;;5.91;100.00
72061;BME280;59925;52.136;5.420;2024-03-06T01:52:50;101984.78;;;5.90;100.00
72061;BME280;59925;52.136;5.420;2024-03-06T01:55:18;101977.03;;;5.88;100.00
72061;BME280;59925;52.136;5.420;2024-03-06T01:57:44;101983.22;;;5.82;100.00
72061;BME280;59925;52.136;5.420;2024-03-06T02:00:11;101978.50;;;5.77;100.00
72061;BME280;59925;52.136;5.420;2024-03-06T02:02:41;101982.81;;;5.72;100.00
72061;BME280;59925;52.136;5.420;2024-03-06T02:05:09;101986.50;;;5.64;100.00
72061;BME280;59925;52.136;5.420;2024-03-06T02:07:36;101991.44;;;5.60;100.00
72061;BME280;59925;52.136;5.420;2024-03-06T02:10:05;101989.16;;;5.57;100.00
72061;BME280;59925;52.136;5.420;2024-03-06T02:12:33;101990.63;;;5.53;100.00
72061;BME280;59925;52.136;5.420;2024-03-06T02:14:59;101995.13;;;5.46;100.00
72061;BME280;59925;52.136;5.420;2024-03-06T02:17:26;101991.25;;;5.42;100.00
72061;BME280;59925;52.136;5.420;2024-03-06T02:19:55;101996.59;;;5.35;100.00
72061;BME280;59925;52.136;5.420;2024-03-06T02:22:24;101993.72;;;5.30;100.00
72061;BME280;59925;52.136;5.420;2024-03-06T02:24:51;101999.66;;;5.18;100.00
72061;BME280;59925;52.136;5.420;2024-03-06T02:27:17;102008.84;;;5.09;100.00
72061;BME280;59925;52.136;5.420;2024-03-06T02:29:44;101994.09;;;5.06;100.00
72061;BME280;59925;52.136;5.420;2024-03-06T02:32:12;101993.91;;;5.01;100.00
72061;BME280;59925;52.136;5.420;2024-03-06T02:34:40;101992.06;;;4.95;100.00
72061;BME280;59925;52.136;5.420;2024-03-06T02:37:07;101995.34;;;4.90;100.00
72061;BME280;59925;52.136;5.420;2024-03-06T02:39:34;101997.75;;;4.85;100.00
72061;BME280;59925;52.136;5.420;2024-03-06T02:42:00;102000.63;;;4.84;100.00
72061;BME280;59925;52.136;5.420;2024-03-06T02:44:27;102003.28;;;4.84;100.00
72061;BME280;59925;52.136;5.420;2024-03-06T02:46:54;102010.44;;;4.83;100.00
72061;BME280;59925;52.136;5.420;2024-03-06T02:49:21;102010.25;;;4.85;100.00
72061;BME280;59925;52.136;5.420;2024-03-06T02:51:47;102009.84;;;4.81;100.00
72061;BME280;59925;52.136;5.420;2024-03-06T02:54:14;102007.34;;;4.73;100.00
72061;BME280;59925;52.136;5.420;2024-03-06T02:56:40;102005.69;;;4.65;100.00
72061;BME280;59925;52.136;5.420;2024-03-06T02:59:07;102007.91;;;4.55;100.00
72061;BME280;59925;52.136;5.420;2024-03-06T03:01:34;102000.94;;;4.47;100.00
72061;BME280;59925;52.136;5.420;2024-03-06T03:04:00;102001.34;;;4.44;100.00
72061;BME280;59925;52.136;5.420;2024-03-06T03:06:27;102006.06;;;4.42;100.00
72061;BME280;59925;52.136;5.420;2024-03-06T03:08:55;102010.53;;;4.41;100.00
72061;BME280;59925;52.136;5.420;2024-03-06T03:11:22;102011.56;;;4.40;100.00
72061;BME280;59925;52.136;5.420;2024-03-06T03:13:49;102002.97;;;4.38;100.00
72061;BME280;59925;52.136;5.420;2024-03-06T03:16:19;102016.88;;;4.40;100.00
72061;BME280;59925;52.136;5.420;2024-03-06T03:18:47;102013.19;;;4.41;100.00
72061;BME280;59925;52.136;5.420;2024-03-06T03:21:14;102010.34;;;4.43;100.00
72061;BME280;59925;52.136;5.420;2024-03-06T03:23:41;102021.75;;;4.37;100.00
72061;BME280;59925;52.136;5.420;2024-03-06T03:26:08;102020.31;;;4.27;100.00
72061;BME280;59925;52.136;5.420;2024-03-06T03:28:38;102018.41;;;4.21;100.00
72061;BME280;59925;52.136;5.420;2024-03-06T03:31:08;102024.94;;;4.19;100.00
72061;BME280;59925;52.136;5.420;2024-03-06T03:33:38;102022.31;;;4.19;100.00
72061;BME280;59925;52.136;5.420;2024-03-06T03:36:06;102019.41;;;4.13;100.00
72061;BME280;59925;52.136;5.420;2024-03-06T03:38:37;102016.09;;;4.05;100.00
72061;BME280;59925;52.136;5.420;2024-03-06T03:41:11;102017.53;;;4.01;100.00
72061;BME280;59925;52.136;5.420;2024-03-06T03:43:43;102021.78;;;3.95;100.00
72061;BME280;59925;52.136;5.420;2024-03-06T03:46:09;102031.13;;;3.91;100.00
72061;BME280;59925;52.136;5.420;2024-03-06T03:48:36;102036.44;;;3.91;100.00
72061;BME280;59925;52.136;5.420;2024-03-06T03:51:05;102039.06;;;3.84;100.00
72061;BME280;59925;52.136;5.420;2024-03-06T03:53:32;102037.41;;;3.83;100.00
72061;BME280;59925;52.136;5.420;2024-03-06T03:55:59;102035.97;;;3.80;100.00
72061;BME280;59925;52.136;5.420;2024-03-06T03:58:26;102035.13;;;3.80;100.00
72061;BME280;59925;52.136;5.420;2024-03-06T04:00:52;102030.47;;;3.82;100.00
72061;BME280;59925;52.136;5.420;2024-03-06T04:03:21;102029.44;;;3.83;100.00
72061;BME280;59925;52.136;5.420;2024-03-06T04:05:48;102034.75;;;3.83;100.00
72061;BME280;59925;52.136;5.420;2024-03-06T04:08:15;102026.00;;;3.82;100.00
72061;BME280;59925;52.136;5.420;2024-03-06T04:10:42;102039.25;;;3.82;100.00
72061;BME280;59925;52.136;5.420;2024-03-06T04:13:11;102037.78;;;3.80;100.00
72061;BME280;59925;52.136;5.420;2024-03-06T04:15:38;102038.63;;;3.80;100.00
72061;BME280;59925;52.136;5.420;2024-03-06T04:18:05;102033.50;;;3.79;100.00
72061;BME280;59925;52.136;5.420;2024-03-06T04:20:32;102039.22;;;3.76;100.00
72061;BME280;59925;52.136;5.420;2024-03-06T04:22:58;102038.75;;;3.72;100.00
72061;BME280;59925;52.136;5.420;2024-03-06T04:25:25;102037.31;;;3.70;100.00
72061;BME280;59925;52.136;5.420;2024-03-06T04:27:51;102040.19;;;3.68;100.00
72061;BME280;59925;52.136;5.420;2024-03-06T04:30:17;102033.59;;;3.64;100.00
72061;BME280;59925;52.136;5.420;2024-03-06T04:32:44;102044.38;;;3.56;100.00
72061;BME280;59925;52.136;5.420;2024-03-06T04:35:11;102042.69;;;3.48;100.00
72061;BME280;59925;52.136;5.420;2024-03-06T04:37:38;102050.94;;;3.38;100.00
72061;BME280;59925;52.136;5.420;2024-03-06T04:40:06;102050.69;;;3.33;100.00
72061;BME280;59925;52.136;5.420;2024-03-06T04:42:34;102056.63;;;3.35;100.00
72061;BME280;59925;52.136;5.420;2024-03-06T04:45:03;102057.63;;;3.34;100.00
72061;BME280;59925;52.136;5.420;2024-03-06T04:47:30;102060.94;;;3.36;100.00
72061;BME280;59925;52.136;5.420;2024-03-06T04:49:56;102069.25;;;3.33;100.00
72061;BME280;59925;52.136;5.420;2024-03-06T04:52:24;102071.22;;;3.24;100.00
72061;BME280;59925;52.136;5.420;2024-03-06T04:54:50;102071.34;;;3.16;100.00
72061;BME280;59925;52.136;5.420;2024-03-06T04:57:17;102073.75;;;3.11;100.00
72061;BME280;59925;52.136;5.420;2024-03-06T04:59:44;102071.41;;;3.01;100.00
72061;BME280;59925;52.136;5.420;2024-03-06T05:02:11;102075.16;;;2.91;100.00
72061;BME280;59925;52.136;5.420;2024-03-06T05:04:37;102077.19;;;2.89;100.00
72061;BME280;59925;52.136;5.420;2024-03-06T05:07:21;102075.38;;;2.90;100.00
72061;BME280;59925;52.136;5.420;2024-03-06T05:10:06;102076.81;;;2.92;100.00
72061;BME280;59925;52.136;5.420;2024-03-06T05:12:51;102083.75;;;2.94;100.00
72061;BME280;59925;52.136;5.420;2024-03-06T05:15:35;102087.59;;;2.91;100.00
72061;BME280;59925;52.136;5.420;2024-03-06T05:18:20;102089.97;;;2.86;100.00
72061;BME280;59925;52.136;5.420;2024-03-06T05:21:04;102092.38;;;2.81;100.00
72061;BME280;59925;52.136;5.420;2024-03-06T05:23:48;102096.75;;;2.73;100.00
72061;BME280;59925;52.136;5.420;2024-03-06T05:26:32;102102.91;;;2.74;100.00
72061;BME280;59925;52.136;5.420;2024-03-06T05:29:17;102112.50;;;2.75;100.00
72061;BME280;59925;52.136;5.420;2024-03-06T05:32:01;102111.47;;;2.76;100.00
72061;BME280;59925;52.136;5.420;2024-03-06T05:34:45;102117.38;;;2.78;100.00
72061;BME280;59925;52.136;5.420;2024-03-06T05:37:28;102113.13;;;2.77;100.00
72061;BME280;59925;52.136;5.420;2024-03-06T05:40:12;102117.94;;;2.73;100.00
72061;BME280;59925;52.136;5.420;2024-03-06T05:42:56;102124.09;;;2.74;100.00
72061;BME280;59925;52.136;5.420;2024-03-06T05:45:40;102123.00;;;2.68;100.00
72061;BME280;59925;52.136;5.420;2024-03-06T05:48:25;102129.22;;;2.60;100.00
72061;BME280;59925;52.136;5.420;2024-03-06T05:51:09;102132.22;;;2.57;100.00
72061;BME280;59925;52.136;5.420;2024-03-06T05:53:53;102125.94;;;2.58;100.00
72061;BME280;59925;52.136;5.420;2024-03-06T05:56:37;102134.88;;;2.57;100.00
72061;BME280;59925;52.136;5.420;2024-03-06T05:59:22;102130.94;;;2.53;100.00
72061;BME280;59925;52.136;5.420;2024-03-06T06:01:50;102146.22;;;2.51;100.00
72061;BME280;59925;52.136;5.420;2024-03-06T06:04:16;102146.56;;;2.48;100.00
72061;BME280;59925;52.136;5.420;2024-03-06T06:06:56;102154.88;;;2.45;100.00
72061;BME280;59925;52.136;5.420;2024-03-06T06:09:22;102158.22;;;2.39;100.00
72061;BME280;59925;52.136;5.420;2024-03-06T06:11:49;102163.25;;;2.34;100.00
72061;BME280;59925;52.136;5.420;2024-03-06T06:14:16;102156.97;;;2.35;100.00
72061;BME280;59925;52.136;5.420;2024-03-06T06:16:43;102165.91;;;2.34;100.00
72061;BME280;59925;52.136;5.420;2024-03-06T06:19:09;102161.41;;;2.34;100.00
72061;BME280;59925;52.136;5.420;2024-03-06T06:21:36;102168.34;;;2.35;100.00
72061;BME280;59925;52.136;5.420;2024-03-06T06:24:04;102170.84;;;2.37;100.00
72061;BME280;59925;52.136;5.420;2024-03-06T06:26:31;102177.41;;;2.41;100.00
72061;BME280;59925;52.136;5.420;2024-03-06T06:28:58;102179.03;;;2.42;100.00
72061;BME280;59925;52.136;5.420;2024-03-06T06:31:25;102186.97;;;2.42;100.00
72061;BME280;59925;52.136;5.420;2024-03-06T06:33:53;102187.81;;;2.42;100.00
72061;BME280;59925;52.136;5.420;2024-03-06T06:36:19;102193.56;;;2.46;100.00
72061;BME280;59925;52.136;5.420;2024-03-06T06:38:47;102193.56;;;2.46;100.00
72061;BME280;59925;52.136;5.420;2024-03-06T06:41:14;102191.91;;;2.45;100.00
72061;BME280;59925;52.136;5.420;2024-03-06T06:43:41;102199.66;;;2.47;100.00
72061;BME280;59925;52.136;5.420;2024-03-06T06:46:08;102207.81;;;2.45;100.00
72061;BME280;59925;52.136;5.420;2024-03-06T06:48:34;102213.91;;;2.45;100.00
72061;BME280;59925;52.136;5.420;2024-03-06T06:51:01;102213.38;;;2.50;100.00
72061;BME280;59925;52.136;5.420;2024-03-06T06:53:31;102218.13;;;2.55;100.00
72061;BME280;59925;52.136;5.420;2024-03-06T06:55:58;102231.63;;;2.60;100.00
72061;BME280;59925;52.136;5.420;2024-03-06T06:58:24;102231.28;;;2.63;100.00
72061;BME280;59925;52.136;5.420;2024-03-06T07:00:53;102231.13;;;2.65;100.00
72061;BME280;59925;52.136;5.420;2024-03-06T07:03:20;102238.31;;;2.71;100.00
72061;BME280;59925;52.136;5.420;2024-03-06T07:05:47;102236.13;;;2.74;100.00
72061;BME280;59925;52.136;5.420;2024-03-06T07:08:14;102239.06;;;2.80;100.00
72061;BME280;59925;52.136;5.420;2024-03-06T07:10:41;102246.09;;;2.87;100.00
72061;BME280;59925;52.136;5.420;2024-03-06T07:13:07;102247.81;;;2.95;100.00
72061;BME280;59925;52.136;5.420;2024-03-06T07:15:35;102247.91;;;3.02;100.00
72061;BME280;59925;52.136;5.420;2024-03-06T07:18:01;102248.44;;;3.12;100.00
72061;BME280;59925;52.136;5.420;2024-03-06T07:20:28;102254.47;;;3.21;100.00
72061;BME280;59925;52.136;5.420;2024-03-06T07:22:55;102255.56;;;3.27;100.00
72061;BME280;59925;52.136;5.420;2024-03-06T07:25:22;102256.56;;;3.26;100.00
72061;BME280;59925;52.136;5.420;2024-03-06T07:27:48;102256.66;;;3.32;100.00
72061;BME280;59925;52.136;5.420;2024-03-06T07:30:15;102263.41;;;3.35;100.00
72061;BME280;59925;52.136;5.420;2024-03-06T07:32:42;102262.88;;;3.25;100.00
72061;BME280;59925;52.136;5.420;2024-03-06T07:35:09;102261.88;;;3.26;100.00
72061;BME280;59925;52.136;5.420;2024-03-06T07:37:36;102268.97;;;3.25;100.00
72061;BME280;59925;52.136;5.420;2024-03-06T07:40:03;102267.44;;;3.31;100.00
72061;BME280;59925;52.136;5.420;2024-03-06T07:42:31;102271.34;;;3.35;100.00
72061;BME280;59925;52.136;5.420;2024-03-06T07:44:59;102272.34;;;3.34;100.00
72061;BME280;59925;52.136;5.420;2024-03-06T07:47:26;102272.06;;;3.44;100.00
72061;BME280;59925;52.136;5.420;2024-03-06T07:49:53;102278.09;;;3.52;100.00
72061;BME280;59925;52.136;5.420;2024-03-06T07:52:20;102281.38;;;3.55;100.00
72061;BME280;59925;52.136;5.420;2024-03-06T07:54:47;102286.50;;;3.56;100.00
72061;BME280;59925;52.136;5.420;2024-03-06T07:57:13;102282.84;;;3.57;100.00
72061;BME280;59925;52.136;5.420;2024-03-06T07:59:40;102292.16;;;3.68;100.00
72061;BME280;59925;52.136;5.420;2024-03-06T08:02:06;102291.31;;;3.67;100.00
72061;BME280;59925;52.136;5.420;2024-03-06T08:04:34;102289.72;;;3.73;100.00
72061;BME280;59925;52.136;5.420;2024-03-06T08:07:01;102300.34;;;3.73;100.00
72061;BME280;59925;52.136;5.420;2024-03-06T08:09:27;102305.47;;;3.75;100.00
72061;BME280;59925;52.136;5.420;2024-03-06T08:11:54;102306.56;;;3.65;100.00
72061;BME280;59925;52.136;5.420;2024-03-06T08:14:21;102308.44;;;3.65;100.00
72061;BME280;59925;52.136;5.420;2024-03-06T08:16:48;102310.38;;;3.78;100.00
72061;BME280;59925;52.136;5.420;2024-03-06T08:19:14;102307.72;;;3.93;100.00
72061;BME280;59925;52.136;5.420;2024-03-06T08:21:41;102306.00;;;4.07;100.00
72061;BME280;59925;52.136;5.420;2024-03-06T08:24:07;102308.28;;;4.10;100.00
72061;BME280;59925;52.136;5.420;2024-03-06T08:26:34;102307.13;;;4.19;100.00
72061;BME280;59925;52.136;5.420;2024-03-06T08:29:00;102311.50;;;4.27;100.00
72061;BME280;59925;52.136;5.420;2024-03-06T08:31:27;102320.34;;;4.34;100.00
72061;BME280;59925;52.136;5.420;2024-03-06T08:33:53;102324.31;;;4.45;100.00
72061;BME280;59925;52.136;5.420;2024-03-06T08:36:20;102322.97;;;4.56;100.00
72061;BME280;59925;52.136;5.420;2024-03-06T08:38:47;102336.50;;;4.61;100.00
72061;BME280;59925;52.136;5.420;2024-03-06T08:41:13;102336.50;;;4.61;100.00
72061;BME280;59925;52.136;5.420;2024-03-06T08:43:40;102339.00;;;4.69;100.00
72061;BME280;59925;52.136;5.420;2024-03-06T08:46:06;102342.03;;;4.88;100.00
72061;BME280;59925;52.136;5.420;2024-03-06T08:48:33;102342.91;;;5.02;100.00
72061;BME280;59925;52.136;5.420;2024-03-06T08:51:00;102339.59;;;4.93;100.00
72061;BME280;59925;52.136;5.420;2024-03-06T08:53:26;102350.84;;;4.95;100.00
72061;BME280;59925;52.136;5.420;2024-03-06T08:55:52;102349.28;;;5.07;100.00
72061;BME280;59925;52.136;5.420;2024-03-06T08:58:19;102360.97;;;5.13;100.00
72061;BME280;59925;52.136;5.420;2024-03-06T09:00:47;102359.59;;;5.17;100.00
72061;BME280;59925;52.136;5.420;2024-03-06T09:03:15;102357.22;;;5.29;100.00
72061;BME280;59925;52.136;5.420;2024-03-06T09:05:42;102358.00;;;5.30;100.00
72061;BME280;59925;52.136;5.420;2024-03-06T09:08:08;102365.19;;;5.36;100.00
72061;BME280;59925;52.136;5.420;2024-03-06T09:10:36;102370.41;;;5.51;100.00
72061;BME280;59925;52.136;5.420;2024-03-06T09:13:02;102370.22;;;5.59;100.00
72061;BME280;59925;52.136;5.420;2024-03-06T09:15:29;102375.78;;;5.64;100.00
72061;BME280;59925;52.136;5.420;2024-03-06T09:17:55;102375.63;;;5.79;100.00
72061;BME280;59925;52.136;5.420;2024-03-06T09:20:22;102380.59;;;5.89;100.00
72061;BME280;59925;52.136;5.420;2024-03-06T09:22:50;102378.31;;;5.86;100.00
72061;BME280;59925;52.136;5.420;2024-03-06T09:25:20;102383.66;;;5.93;100.00
72061;BME280;59925;52.136;5.420;2024-03-06T09:27:47;102385.38;;;6.07;100.00
72061;BME280;59925;52.136;5.420;2024-03-06T09:30:14;102392.56;;;6.13;100.00
72061;BME280;59925;52.136;5.420;2024-03-06T09:32:42;102404.44;;;6.11;100.00
72061;BME280;59925;52.136;5.420;2024-03-06T09:35:10;102399.97;;;6.32;100.00
72061;BME280;59925;52.136;5.420;2024-03-06T09:37:37;102406.75;;;6.48;100.00
72061;BME280;59925;52.136;5.420;2024-03-06T09:40:04;102403.88;;;6.49;100.00
72061;BME280;59925;52.136;5.420;2024-03-06T09:42:31;102411.69;;;6.51;100.00
72061;BME280;59925;52.136;5.420;2024-03-06T09:44:57;102418.25;;;6.55;100.00
72061;BME280;59925;52.136;5.420;2024-03-06T09:47:24;102416.81;;;6.59;100.00
72061;BME280;59925;52.136;5.420;2024-03-06T09:49:54;102413.97;;;6.54;100.00
72061;BME280;59925;52.136;5.420;2024-03-06T09:52:23;102416.41;;;6.62;100.00
72061;BME280;59925;52.136;5.420;2024-03-06T09:54:55;102423.00;;;6.73;100.00
72061;BME280;59925;52.136;5.420;2024-03-06T09:57:23;102418.88;;;6.77;100.00
72061;BME280;59925;52.136;5.420;2024-03-06T09:59:51;102425.03;;;6.91;100.00
72061;BME280;59925;52.136;5.420;2024-03-06T10:02:34;102426.88;;;7.11;100.00
72061;BME280;59925;52.136;5.420;2024-03-06T10:05:05;102425.00;;;7.25;100.00
72061;BME280;59925;52.136;5.420;2024-03-06T10:07:33;102426.66;;;7.32;100.00
72061;BME280;59925;52.136;5.420;2024-03-06T10:10:01;102433.81;;;7.32;100.00
72061;BME280;59925;52.136;5.420;2024-03-06T10:12:29;102434.81;;;7.44;100.00
72061;BME280;59925;52.136;5.420;2024-03-06T10:15:00;102440.69;;;7.73;100.00
72061;BME280;59925;52.136;5.420;2024-03-06T10:17:28;102423.19;;;7.91;100.00
72061;BME280;59925;52.136;5.420;2024-03-06T10:19:58;102436.06;;;8.01;100.00
72061;BME280;59925;52.136;5.420;2024-03-06T10:22:28;102441.59;;;8.06;100.00
72061;BME280;59925;52.136;5.420;2024-03-06T10:24:55;102439.59;;;7.94;100.00
72061;BME280;59925;52.136;5.420;2024-03-06T10:27:26;102441.97;;;8.09;100.00
72061;BME280;59925;52.136;5.420;2024-03-06T10:30:02;102443.94;;;8.27;100.00
72061;BME280;59925;52.136;5.420;2024-03-06T10:32:31;102443.47;;;8.37;100.00
72061;BME280;59925;52.136;5.420;2024-03-06T10:35:02;102438.63;;;8.59;100.00
72061;BME280;59925;52.136;5.420;2024-03-06T10:37:29;102441.19;;;9.05;100.00
72061;BME280;59925;52.136;5.420;2024-03-06T10:39:58;102440.47;;;9.35;100.00
72061;BME280;59925;52.136;5.420;2024-03-06T10:42:33;102439.72;;;9.28;100.00
72061;BME280;59925;52.136;5.420;2024-03-06T10:45:04;102446.41;;;9.37;100.00
72061;BME280;59925;52.136;5.420;2024-03-06T10:47:36;102451.28;;;9.03;100.00
72061;BME280;59925;52.136;5.420;2024-03-06T10:50:06;102446.66;;;9.10;100.00
72061;BME280;59925;52.136;5.420;2024-03-06T10:52:38;102447.69;;;9.34;100.00
72061;BME280;59925;52.136;5.420;2024-03-06T10:55:06;102454.97;;;9.46;100.00
72061;BME280;59925;52.136;5.420;2024-03-06T10:57:36;102455.28;;;9.56;100.00
72061;BME280;59925;52.136;5.420;2024-03-06T11:00:03;102451.03;;;9.48;100.00
72061;BME280;59925;52.136;5.420;2024-03-06T11:02:31;102451.69;;;9.44;100.00
72061;BME280;59925;52.136;5.420;2024-03-06T11:04:58;102453.56;;;9.62;100.00
72061;BME280;59925;52.136;5.420;2024-03-06T11:07:25;102455.25;;;9.93;100.00
72061;BME280;59925;52.136;5.420;2024-03-06T11:09:54;102455.97;;;10.19;100.00
72061;BME280;59925;52.136;5.420;2024-03-06T11:12:36;102455.53;;;10.53;100.00
72061;BME280;59925;52.136;5.420;2024-03-06T11:15:24;102462.38;;;11.03;100.00
72061;BME280;59925;52.136;5.420;2024-03-06T11:17:51;102466.72;;;11.16;100.00
72061;BME280;59925;52.136;5.420;2024-03-06T11:20:21;102464.59;;;10.40;100.00
72061;BME280;59925;52.136;5.420;2024-03-06T11:28:19;102459.91;;;10.89;100.00
72061;BME280;59925;52.136;5.420;2024-03-06T11:30:46;102465.19;;;11.20;100.00
72061;BME280;59925;52.136;5.420;2024-03-06T11:33:17;102466.56;;;10.87;100.00
72061;BME280;59925;52.136;5.420;2024-03-06T11:39:00;102468.19;;;11.00;100.00
72061;BME280;59925;52.136;5.420;2024-03-06T11:41:46;102469.72;;;11.43;100.00
72061;BME280;59925;52.136;5.420;2024-03-06T11:44:21;102474.97;;;11.62;100.00
72061;BME280;59925;52.136;5.420;2024-03-06T11:47:03;102473.22;;;11.68;98.57
72061;BME280;59925;52.136;5.420;2024-03-06T11:49:31;102471.00;;;11.64;98.43
72061;BME280;59925;52.136;5.420;2024-03-06T11:52:05;102479.22;;;11.99;99.12
72061;BME280;59925;52.136;5.420;2024-03-06T11:54:32;102483.69;;;11.81;96.17
72061;BME280;59925;52.136;5.420;2024-03-06T11:57:01;102481.06;;;12.10;98.37
72061;BME280;59925;52.136;5.420;2024-03-06T11:59:33;102476.09;;;12.48;98.17
72061;BME280;59925;52.136;5.420;2024-03-06T12:02:03;102474.53;;;12.81;96.34
72061;BME280;59925;52.136;5.420;2024-03-06T12:04:31;102481.59;;;13.04;95.59
72061;BME280;59925;52.136;5.420;2024-03-06T12:07:01;102473.69;;;12.97;93.28
72061;BME280;59925;52.136;5.420;2024-03-06T12:09:35;102480.88;;;12.92;91.76
72061;BME280;59925;52.136;5.420;2024-03-06T12:12:07;102475.66;;;13.02;92.13
72061;BME280;59925;52.136;5.420;2024-03-06T12:14:35;102470.50;;;13.17;91.08
72061;BME280;59925;52.136;5.420;2024-03-06T12:17:02;102481.97;;;13.30;91.01
72061;BME280;59925;52.136;5.420;2024-03-06T12:19:33;102476.59;;;13.47;89.90
72061;BME280;59925;52.136;5.420;2024-03-06T12:22:00;102479.75;;;13.61;89.50
72061;BME280;59925;52.136;5.420;2024-03-06T12:24:31;102480.94;;;13.70;88.09
72061;BME280;59925;52.136;5.420;2024-03-06T12:27:00;102477.34;;;13.64;85.31
72061;BME280;59925;52.136;5.420;2024-03-06T12:29:28;102478.00;;;13.72;85.74
72061;BME280;59925;52.136;5.420;2024-03-06T12:31:57;102474.66;;;14.09;85.09
72061;BME280;59925;52.136;5.420;2024-03-06T12:34:23;102481.97;;;14.14;83.85
72061;BME280;59925;52.136;5.420;2024-03-06T12:36:50;102479.66;;;14.22;83.39
72061;BME280;59925;52.136;5.420;2024-03-06T12:39:17;102472.06;;;14.47;83.26
72061;BME280;59925;52.136;5.420;2024-03-06T12:41:47;102479.97;;;14.53;82.08
72061;BME280;59925;52.136;5.420;2024-03-06T12:44:14;102478.50;;;14.68;81.25
72061;BME280;59925;52.136;5.420;2024-03-06T12:46:42;102477.09;;;14.98;79.39
72061;BME280;59925;52.136;5.420;2024-03-06T12:49:08;102472.53;;;14.98;78.27
72061;BME280;59925;52.136;5.420;2024-03-06T12:51:35;102474.28;;;14.55;77.49
72061;BME280;59925;52.136;5.420;2024-03-06T12:54:01;102471.00;;;14.48;79.37
72061;BME280;59925;52.136;5.420;2024-03-06T12:56:29;102468.59;;;15.16;79.37
72061;BME280;59925;52.136;5.420;2024-03-06T12:58:56;102465.88;;;15.70;78.20
72061;BME280;59925;52.136;5.420;2024-03-06T13:01:22;102465.72;;;15.92;75.76
72061;BME280;59925;52.136;5.420;2024-03-06T13:03:49;102464.75;;;15.60;75.38
72061;BME280;59925;52.136;5.420;2024-03-06T13:06:15;102464.25;;;15.69;74.29
72061;BME280;59925;52.136;5.420;2024-03-06T13:08:42;102461.78;;;15.62;72.22